sensor_id;sensor_type;location;lat;lon;timestamp;pressure;altitude;pressure_sealevel;temperature;humidity
67931;BME280;63902;52.000;5.954;2022-10-04T00:00:39;102009.72;;;10.06;95.05
67931;BME280;63902;52.000;5.954;2022-10-04T00:01:45;102006.16;;;10.07;95.18
67931;BME280;63902;52.000;5.954;2022-10-04T00:02:46;102004.38;;;10.08;94.94
67931;BME280;63902;52.000;5.954;2022-10-04T00:03:51;102009.72;;;10.06;95.14
67931;BME280;63902;52.000;5.954;2022-10-04T00:04:57;102003.50;;;10.07;95.28
67931;BME280;63902;52.000;5.954;2022-10-04T00:05:58;102000.91;;;10.04;95.34
67931;BME280;63902;52.000;5.954;2022-10-04T00:07:02;101995.56;;;10.07;95.45
67931;BME280;63902;52.000;5.954;2022-10-04T00:08:23;101993.81;;;10.06;95.32
67931;BME280;63902;52.000;5.954;2022-10-04T00:09:30;102008.81;;;10.07;95.32
67931;BME280;63902;52.000;5.954;2022-10-04T00:10:33;102005.34;;;10.05;95.49
67931;BME280;63902;52.000;5.954;2022-10-04T00:11:34;102000.91;;;10.04;95.58
67931;BME280;63902;52.000;5.954;2022-10-04T00:12:38;102008.84;;;10.06;95.52
67931;BME280;63902;52.000;5.954;2022-10-04T00:13:40;102000.91;;;10.04;95.39
67931;BME280;63902;52.000;5.954;2022-10-04T00:14:47;102004.41;;;10.06;95.71
67931;BME280;63902;52.000;5.954;2022-10-04T00:15:49;101994.75;;;10.04;95.43
67931;BME280;63902;52.000;5.954;2022-10-04T00:16:50;101997.38;;;10.05;95.59
67931;BME280;63902;52.000;5.954;2022-10-04T00:18:16;101998.25;;;10.04;95.91
67931;BME280;63902;52.000;5.954;2022-10-04T00:19:36;101997.41;;;10.04;95.78
67931;BME280;63902;52.000;5.954;2022-10-04T00:20:59;102008.00;;;10.04;95.52
67931;BME280;63902;52.000;5.954;2022-10-04T00:22:14;102000.97;;;10.03;95.61
67931;BME280;63902;52.000;5.954;2022-10-04T00:23:28;101989.50;;;10.01;95.74
67931;BME280;63902;52.000;5.954;2022-10-04T00:24:30;101993.88;;;10.03;95.65
67931;BME280;63902;52.000;5.954;2022-10-04T00:25:35;101985.06;;;10.03;95.52
67931;BME280;63902;52.000;5.954;2022-10-04T00:27:10;101986.78;;;10.04;95.70
67931;BME280;63902;52.000;5.954;2022-10-04T00:28:26;101979.78;;;10.01;95.74
67931;BME280;63902;52.000;5.954;2022-10-04T00:29:30;101978.84;;;10.02;95.67
67931;BME280;63902;52.000;5.954;2022-10-04T00:30:35;101971.81;;;10.01;95.60
67931;BME280;63902;52.000;5.954;2022-10-04T00:33:33;101973.56;;;10.02;95.56
67931;BME280;63902;52.000;5.954;2022-10-04T00:34:45;101978.84;;;10.02;95.67
67931;BME280;63902;52.000;5.954;2022-10-04T00:35:47;101981.50;;;10.04;95.54
67931;BME280;63902;52.000;5.954;2022-10-04T00:36:52;101979.75;;;10.03;95.66
67931;BME280;63902;52.000;5.954;2022-10-04T00:37:56;101981.50;;;10.04;95.66
67931;BME280;63902;52.000;5.954;2022-10-04T00:40:40;101972.69;;;10.03;95.60
67931;BME280;63902;52.000;5.954;2022-10-04T00:41:54;101971.88;;;10.00;95.52
67931;BME280;63902;52.000;5.954;2022-10-04T00:42:57;101970.97;;;10.01;95.72
67931;BME280;63902;52.000;5.954;2022-10-04T00:43:58;101965.66;;;9.99;95.53
67931;BME280;63902;52.000;5.954;2022-10-04T00:45:01;101966.53;;;10.01;95.76
67931;BME280;63902;52.000;5.954;2022-10-04T00:46:09;101963.88;;;10.01;95.62
67931;BME280;63902;52.000;5.954;2022-10-04T00:47:22;101959.50;;;10.00;96.02
67931;BME280;63902;52.000;5.954;2022-10-04T00:48:43;101960.38;;;9.99;95.81
67931;BME280;63902;52.000;5.954;2022-10-04T00:49:48;101958.63;;;9.98;95.69
67931;BME280;63902;52.000;5.954;2022-10-04T00:50:55;101957.72;;;9.99;95.76
67931;BME280;63902;52.000;5.954;2022-10-04T00:52:00;101964.81;;;9.99;95.81
67931;BME280;63902;52.000;5.954;2022-10-04T00:53:03;101959.50;;;9.99;96.12
67931;BME280;63902;52.000;5.954;2022-10-04T00:54:15;101957.78;;;9.96;96.10
67931;BME280;63902;52.000;5.954;2022-10-04T00:55:22;101954.28;;;9.96;96.45
67931;BME280;63902;52.000;5.954;2022-10-04T00:56:31;101958.69;;;9.95;96.07
67931;BME280;63902;52.000;5.954;2022-10-04T00:57:37;101949.91;;;9.93;96.26
67931;BME280;63902;52.000;5.954;2022-10-04T00:58:46;101954.31;;;9.94;96.28
67931;BME280;63902;52.000;5.954;2022-10-04T00:59:50;101959.63;;;9.94;96.22
67931;BME280;63902;52.000;5.954;2022-10-04T01:00:52;101956.13;;;9.92;96.40
67931;BME280;63902;52.000;5.954;2022-10-04T01:01:58;101957.84;;;9.93;96.46
67931;BME280;63902;52.000;5.954;2022-10-04T01:03:02;101946.41;;;9.91;96.37
67931;BME280;63902;52.000;5.954;2022-10-04T01:04:14;101957.00;;;9.91;96.53
67931;BME280;63902;52.000;5.954;2022-10-04T01:05:18;101941.16;;;9.88;96.47
67931;BME280;63902;52.000;5.954;2022-10-04T01:06:20;101950.84;;;9.91;96.60
67931;BME280;63902;52.000;5.954;2022-10-04T01:07:25;101949.06;;;9.91;96.58
67931;BME280;63902;52.000;5.954;2022-10-04T01:08:29;101949.06;;;9.91;96.54
67931;BME280;63902;52.000;5.954;2022-10-04T01:09:33;101946.44;;;9.90;96.71
67931;BME280;63902;52.000;5.954;2022-10-04T01:10:39;101939.34;;;9.92;96.81
67931;BME280;63902;52.000;5.954;2022-10-04T01:11:47;101938.50;;;9.88;96.55
67931;BME280;63902;52.000;5.954;2022-10-04T01:12:53;101932.34;;;9.89;96.37
67931;BME280;63902;52.000;5.954;2022-10-04T01:13:57;101935.81;;;9.91;96.64
67931;BME280;63902;52.000;5.954;2022-10-04T01:15:04;101925.25;;;9.88;96.87
67931;BME280;63902;52.000;5.954;2022-10-04T01:16:12;101926.97;;;9.91;96.63
67931;BME280;63902;52.000;5.954;2022-10-04T01:17:13;101928.78;;;9.90;96.83
67931;BME280;63902;52.000;5.954;2022-10-04T01:18:26;101926.97;;;9.91;96.83
67931;BME280;63902;52.000;5.954;2022-10-04T01:19:31;101931.41;;;9.90;96.60
67931;BME280;63902;52.000;5.954;2022-10-04T01:20:33;101926.13;;;9.90;96.82
67931;BME280;63902;52.000;5.954;2022-10-04T01:21:36;101923.47;;;9.89;96.86
67931;BME280;63902;52.000;5.954;2022-10-04T01:22:41;101920.84;;;9.89;96.64
67931;BME280;63902;52.000;5.954;2022-10-04T01:23:44;101929.69;;;9.89;96.95
67931;BME280;63902;52.000;5.954;2022-10-04T01:24:45;101931.41;;;9.90;96.96
67931;BME280;63902;52.000;5.954;2022-10-04T01:25:47;101922.59;;;9.90;96.81
67931;BME280;63902;52.000;5.954;2022-10-04T01:26:48;101927.03;;;9.89;96.78
67931;BME280;63902;52.000;5.954;2022-10-04T01:27:49;101927.03;;;9.89;96.92
67931;BME280;63902;52.000;5.954;2022-10-04T01:28:51;101923.47;;;9.90;96.87
67931;BME280;63902;52.000;5.954;2022-10-04T01:29:52;101918.16;;;9.90;96.85
67931;BME280;63902;52.000;5.954;2022-10-04T01:30:53;101908.47;;;9.89;97.20
67931;BME280;63902;52.000;5.954;2022-10-04T01:31:56;101909.34;;;9.90;96.98
67931;BME280;63902;52.000;5.954;2022-10-04T01:32:57;101900.53;;;9.88;97.02
67931;BME280;63902;52.000;5.954;2022-10-04T01:33:58;101905.84;;;9.88;97.17
67931;BME280;63902;52.000;5.954;2022-10-04T01:34:59;101912.00;;;9.88;97.08
67931;BME280;63902;52.000;5.954;2022-10-04T01:36:00;101920.00;;;9.86;97.17
67931;BME280;63902;52.000;5.954;2022-10-04T01:37:00;101915.66;;;9.84;96.96
67931;BME280;63902;52.000;5.954;2022-10-04T01:38:03;101918.28;;;9.84;97.32
67931;BME280;63902;52.000;5.954;2022-10-04T01:39:05;101924.47;;;9.84;97.27
67931;BME280;63902;52.000;5.954;2022-10-04T01:40:07;101920.91;;;9.85;97.72
67931;BME280;63902;52.000;5.954;2022-10-04T01:41:10;101918.31;;;9.82;97.61
67931;BME280;63902;52.000;5.954;2022-10-04T01:42:16;101922.69;;;9.85;97.46
67931;BME280;63902;52.000;5.954;2022-10-04T01:43:22;101915.66;;;9.84;97.61
67931;BME280;63902;52.000;5.954;2022-10-04T01:44:27;101921.78;;;9.86;97.63
67931;BME280;63902;52.000;5.954;2022-10-04T01:45:34;101905.91;;;9.84;97.76
67931;BME280;63902;52.000;5.954;2022-10-04T01:46:38;101909.44;;;9.85;97.74
67931;BME280;63902;52.000;5.954;2022-10-04T01:47:41;101914.78;;;9.83;97.71
67931;BME280;63902;52.000;5.954;2022-10-04T01:48:44;101909.44;;;9.85;97.61
67931;BME280;63902;52.000;5.954;2022-10-04T01:49:46;101914.78;;;9.83;97.72
67931;BME280;63902;52.000;5.954;2022-10-04T01:50:52;101906.84;;;9.82;97.86
67931;BME280;63902;52.000;5.954;2022-10-04T01:51:59;101905.97;;;9.81;97.96
67931;BME280;63902;52.000;5.954;2022-10-04T01:53:10;101906.00;;;9.80;97.67
67931;BME280;63902;52.000;5.954;2022-10-04T01:54:14;101906.91;;;9.79;97.88
67931;BME280;63902;52.000;5.954;2022-10-04T01:55:19;101906.03;;;9.78;97.79
67931;BME280;63902;52.000;5.954;2022-10-04T01:56:27;101907.91;;;9.75;97.83
67931;BME280;63902;52.000;5.954;2022-10-04T01:57:33;101913.19;;;9.75;98.00
67931;BME280;63902;52.000;5.954;2022-10-04T01:58:41;101904.41;;;9.73;98.16
67931;BME280;63902;52.000;5.954;2022-10-04T01:59:48;101907.06;;;9.71;98.05
67931;BME280;63902;52.000;5.954;2022-10-04T02:00:55;101901.75;;;9.73;98.15
67931;BME280;63902;52.000;5.954;2022-10-04T02:02:00;101894.72;;;9.70;98.03
67931;BME280;63902;52.000;5.954;2022-10-04T02:03:03;101896.50;;;9.70;98.06
67931;BME280;63902;52.000;5.954;2022-10-04T02:04:11;101886.84;;;9.67;98.13
67931;BME280;63902;52.000;5.954;2022-10-04T02:05:17;101883.28;;;9.68;98.10
67931;BME280;63902;52.000;5.954;2022-10-04T02:06:19;101873.59;;;9.67;98.18
67931;BME280;63902;52.000;5.954;2022-10-04T02:07:21;101872.75;;;9.67;98.27
67931;BME280;63902;52.000;5.954;2022-10-04T02:08:27;101875.38;;;9.67;98.23
67931;BME280;63902;52.000;5.954;2022-10-04T02:09:31;101870.97;;;9.66;98.09
67931;BME280;63902;52.000;5.954;2022-10-04T02:10:33;101868.38;;;9.62;98.10
67931;BME280;63902;52.000;5.954;2022-10-04T02:11:34;101864.88;;;9.60;98.28
67931;BME280;63902;52.000;5.954;2022-10-04T02:12:35;101863.09;;;9.62;98.37
67931;BME280;63902;52.000;5.954;2022-10-04T02:13:38;101870.16;;;9.63;98.39
67931;BME280;63902;52.000;5.954;2022-10-04T02:14:43;101875.47;;;9.60;98.34
67931;BME280;63902;52.000;5.954;2022-10-04T02:15:48;101878.97;;;9.62;98.33
67931;BME280;63902;52.000;5.954;2022-10-04T02:16:50;101866.78;;;9.55;98.34
67931;BME280;63902;52.000;5.954;2022-10-04T02:17:51;101875.47;;;9.60;98.59
67931;BME280;63902;52.000;5.954;2022-10-04T02:18:54;101875.53;;;9.59;98.60
67931;BME280;63902;52.000;5.954;2022-10-04T02:19:55;101880.81;;;9.59;98.37
67931;BME280;63902;52.000;5.954;2022-10-04T02:20:57;101877.25;;;9.60;98.53
67931;BME280;63902;52.000;5.954;2022-10-04T02:22:00;101879.03;;;9.59;98.45
67931;BME280;63902;52.000;5.954;2022-10-04T02:23:01;101872.00;;;9.58;98.68
67931;BME280;63902;52.000;5.954;2022-10-04T02:24:06;101872.03;;;9.57;98.57
67931;BME280;63902;52.000;5.954;2022-10-04T02:25:08;101874.66;;;9.58;98.52
67931;BME280;63902;52.000;5.954;2022-10-04T02:26:10;101873.81;;;9.56;98.68
67931;BME280;63902;52.000;5.954;2022-10-04T02:27:11;101863.25;;;9.55;98.84
67931;BME280;63902;52.000;5.954;2022-10-04T02:28:13;101866.78;;;9.55;98.78
67931;BME280;63902;52.000;5.954;2022-10-04T02:29:14;101861.56;;;9.52;98.74
67931;BME280;63902;52.000;5.954;2022-10-04T02:30:14;101858.78;;;9.57;98.54
67931;BME280;63902;52.000;5.954;2022-10-04T02:31:18;101855.28;;;9.56;98.69
67931;BME280;63902;52.000;5.954;2022-10-04T02:32:20;101854.34;;;9.57;98.73
67931;BME280;63902;52.000;5.954;2022-10-04T02:33:21;101848.19;;;9.57;98.64
67931;BME280;63902;52.000;5.954;2022-10-04T02:34:22;101851.75;;;9.56;98.84
67931;BME280;63902;52.000;5.954;2022-10-04T02:35:24;101846.47;;;9.56;98.81
67931;BME280;63902;52.000;5.954;2022-10-04T02:36:27;101842.03;;;9.55;98.88
67931;BME280;63902;52.000;5.954;2022-10-04T02:37:28;101841.19;;;9.54;98.87
67931;BME280;63902;52.000;5.954;2022-10-04T02:38:33;101835.94;;;9.51;98.88
67931;BME280;63902;52.000;5.954;2022-10-04T02:39:41;101835.94;;;9.51;99.04
67931;BME280;63902;52.000;5.954;2022-10-04T02:40:48;101835.09;;;9.49;98.90
67931;BME280;63902;52.000;5.954;2022-10-04T02:41:51;101836.06;;;9.47;98.79
67931;BME280;63902;52.000;5.954;2022-10-04T02:42:57;101837.81;;;9.46;98.97
67931;BME280;63902;52.000;5.954;2022-10-04T02:44:02;101835.22;;;9.43;99.06
67931;BME280;63902;52.000;5.954;2022-10-04T02:45:15;101836.22;;;9.39;98.90
67931;BME280;63902;52.000;5.954;2022-10-04T02:46:22;101831.75;;;9.41;98.91
67931;BME280;63902;52.000;5.954;2022-10-04T02:47:27;101834.41;;;9.41;99.27
67931;BME280;63902;52.000;5.954;2022-10-04T02:48:36;101840.59;;;9.40;99.06
67931;BME280;63902;52.000;5.954;2022-10-04T02:49:43;101836.22;;;9.39;99.25
67931;BME280;63902;52.000;5.954;2022-10-04T02:50:47;101837.09;;;9.38;99.14
67931;BME280;63902;52.000;5.954;2022-10-04T02:51:51;101828.34;;;9.36;99.22
67931;BME280;63902;52.000;5.954;2022-10-04T02:52:56;101821.41;;;9.29;99.33
67931;BME280;63902;52.000;5.954;2022-10-04T02:54:03;101817.84;;;9.30;99.47
67931;BME280;63902;52.000;5.954;2022-10-04T02:55:11;101823.13;;;9.30;99.22
67931;BME280;63902;52.000;5.954;2022-10-04T02:56:17;101821.41;;;9.29;99.15
67931;BME280;63902;52.000;5.954;2022-10-04T02:57:21;101820.53;;;9.28;99.24
67931;BME280;63902;52.000;5.954;2022-10-04T02:58:23;101822.38;;;9.25;99.47
67931;BME280;63902;52.000;5.954;2022-10-04T02:59:25;101822.38;;;9.23;99.41
67931;BME280;63902;52.000;5.954;2022-10-04T03:00:27;101812.72;;;9.22;99.50
67931;BME280;63902;52.000;5.954;2022-10-04T03:01:40;101810.09;;;9.21;99.23
67931;BME280;63902;52.000;5.954;2022-10-04T03:03:13;101809.22;;;9.20;99.63
67931;BME280;63902;52.000;5.954;2022-10-04T03:04:16;101811.00;;;9.18;99.53
67931;BME280;63902;52.000;5.954;2022-10-04T03:05:18;101811.88;;;9.18;99.33
67931;BME280;63902;52.000;5.954;2022-10-04T03:06:19;101811.06;;;9.16;99.46
67931;BME280;63902;52.000;5.954;2022-10-04T03:07:22;101808.44;;;9.15;99.37
67931;BME280;63902;52.000;5.954;2022-10-04T03:08:23;101811.94;;;9.15;99.61
67931;BME280;63902;52.000;5.954;2022-10-04T03:09:24;101812.84;;;9.14;99.55
67931;BME280;63902;52.000;5.954;2022-10-04T03:10:29;101812.84;;;9.14;99.36
67931;BME280;63902;52.000;5.954;2022-10-04T03:11:33;101813.78;;;9.13;99.49
67931;BME280;63902;52.000;5.954;2022-10-04T03:12:34;101812.00;;;9.12;99.37
67931;BME280;63902;52.000;5.954;2022-10-04T03:13:34;101815.56;;;9.11;99.61
67931;BME280;63902;52.000;5.954;2022-10-04T03:14:37;101823.50;;;9.11;99.61
67931;BME280;63902;52.000;5.954;2022-10-04T03:15:38;101823.53;;;9.10;99.59
67931;BME280;63902;52.000;5.954;2022-10-04T03:16:41;101825.28;;;9.09;99.71
67931;BME280;63902;52.000;5.954;2022-10-04T03:17:43;101833.25;;;9.09;99.79
67931;BME280;63902;52.000;5.954;2022-10-04T03:18:44;101826.22;;;9.08;99.66
67931;BME280;63902;52.000;5.954;2022-10-04T03:19:47;101828.84;;;9.08;99.59
67931;BME280;63902;52.000;5.954;2022-10-04T03:20:47;101823.56;;;9.08;99.47
67931;BME280;63902;52.000;5.954;2022-10-04T03:21:50;101820.91;;;9.08;99.68
67931;BME280;63902;52.000;5.954;2022-10-04T03:22:54;101826.22;;;9.07;99.39
67931;BME280;63902;52.000;5.954;2022-10-04T03:23:55;101806.09;;;9.00;99.54
67931;BME280;63902;52.000;5.954;2022-10-04T03:24:56;101805.97;;;9.04;99.81
67931;BME280;63902;52.000;5.954;2022-10-04T03:26:01;101814.81;;;9.05;99.84
67931;BME280;63902;52.000;5.954;2022-10-04T03:27:05;101811.28;;;9.04;99.87
67931;BME280;63902;52.000;5.954;2022-10-04T03:28:07;101800.75;;;9.01;99.66
67931;BME280;63902;52.000;5.954;2022-10-04T03:29:10;101806.03;;;9.03;99.75
67931;BME280;63902;52.000;5.954;2022-10-04T03:30:12;101803.38;;;9.03;99.79
67931;BME280;63902;52.000;5.954;2022-10-04T03:31:13;101798.97;;;9.02;99.73
67931;BME280;63902;52.000;5.954;2022-10-04T03:32:16;101800.75;;;9.01;99.78
67931;BME280;63902;52.000;5.954;2022-10-04T03:33:21;101797.28;;;8.99;99.58
67931;BME280;63902;52.000;5.954;2022-10-04T03:34:24;101792.91;;;8.96;99.69
67931;BME280;63902;52.000;5.954;2022-10-04T03:35:28;101794.66;;;8.98;99.79
67931;BME280;63902;52.000;5.954;2022-10-04T03:36:33;101776.31;;;8.87;99.72
67931;BME280;63902;52.000;5.954;2022-10-04T03:37:35;101787.69;;;8.93;99.80
67931;BME280;63902;52.000;5.954;2022-10-04T03:38:36;101782.41;;;8.92;99.72
67931;BME280;63902;52.000;5.954;2022-10-04T03:39:39;101775.41;;;8.89;99.58
67931;BME280;63902;52.000;5.954;2022-10-04T03:40:45;101778.03;;;8.91;99.71
67931;BME280;63902;52.000;5.954;2022-10-04T03:41:49;101780.72;;;8.88;99.98
67931;BME280;63902;52.000;5.954;2022-10-04T03:42:50;101775.47;;;8.86;99.92
67931;BME280;63902;52.000;5.954;2022-10-04T03:43:52;101769.38;;;8.81;99.78
67931;BME280;63902;52.000;5.954;2022-10-04T03:44:56;101777.31;;;8.81;99.94
67931;BME280;63902;52.000;5.954;2022-10-04T03:46:00;101773.00;;;8.77;99.84
67931;BME280;63902;52.000;5.954;2022-10-04T03:47:06;101778.28;;;8.76;100.00
67931;BME280;63902;52.000;5.954;2022-10-04T03:48:12;101770.41;;;8.72;99.94
67931;BME280;63902;52.000;5.954;2022-10-04T03:49:29;101778.34;;;8.72;100.00
67931;BME280;63902;52.000;5.954;2022-10-04T03:50:34;101773.13;;;8.69;99.92
67931;BME280;63902;52.000;5.954;2022-10-04T03:51:37;101771.41;;;8.67;99.99
67931;BME280;63902;52.000;5.954;2022-10-04T03:52:47;101780.25;;;8.64;100.00
67931;BME280;63902;52.000;5.954;2022-10-04T03:53:51;101778.53;;;8.63;100.00
67931;BME280;63902;52.000;5.954;2022-10-04T03:54:56;101775.94;;;8.60;100.00
67931;BME280;63902;52.000;5.954;2022-10-04T03:55:59;101778.59;;;8.59;100.00
67931;BME280;63902;52.000;5.954;2022-10-04T03:57:04;101781.28;;;8.57;100.00
67931;BME280;63902;52.000;5.954;2022-10-04T03:58:08;101777.75;;;8.57;100.00
67931;BME280;63902;52.000;5.954;2022-10-04T03:59:13;101776.00;;;8.56;100.00
67931;BME280;63902;52.000;5.954;2022-10-04T04:00:17;101771.63;;;8.55;100.00
67931;BME280;63902;52.000;5.954;2022-10-04T04:01:28;101770.78;;;8.51;100.00
67931;BME280;63902;52.000;5.954;2022-10-04T04:02:32;101763.78;;;8.48;100.00
67931;BME280;63902;52.000;5.954;2022-10-04T04:03:44;101776.19;;;8.46;100.00
67931;BME280;63902;52.000;5.954;2022-10-04T04:04:54;101773.53;;;8.45;100.00
67931;BME280;63902;52.000;5.954;2022-10-04T04:06:03;101771.81;;;8.42;100.00
67931;BME280;63902;52.000;5.954;2022-10-04T04:07:11;101768.31;;;8.42;100.00
67931;BME280;63902;52.000;5.954;2022-10-04T04:08:20;101758.66;;;8.41;100.00
67931;BME280;63902;52.000;5.954;2022-10-04T04:09:25;101761.28;;;8.41;100.00
67931;BME280;63902;52.000;5.954;2022-10-04T04:10:33;101769.25;;;8.38;100.00
67931;BME280;63902;52.000;5.954;2022-10-04T04:11:35;101763.97;;;8.36;100.00
67931;BME280;63902;52.000;5.954;2022-10-04T04:12:39;101758.75;;;8.32;100.00
67931;BME280;63902;52.000;5.954;2022-10-04T04:13:45;101767.59;;;8.30;100.00
67931;BME280;63902;52.000;5.954;2022-10-04T04:14:50;101770.28;;;8.27;100.00
67931;BME280;63902;52.000;5.954;2022-10-04T04:15:53;101768.56;;;8.25;100.00
67931;BME280;63902;52.000;5.954;2022-10-04T04:17:31;101777.41;;;8.22;100.00
67931;BME280;63902;52.000;5.954;2022-10-04T04:18:35;101776.56;;;8.20;100.00
67931;BME280;63902;52.000;5.954;2022-10-04T04:19:37;101774.84;;;8.18;100.00
67931;BME280;63902;52.000;5.954;2022-10-04T04:20:37;101766.94;;;8.16;100.00
67931;BME280;63902;52.000;5.954;2022-10-04T04:21:40;101775.72;;;8.18;100.00
67931;BME280;63902;52.000;5.954;2022-10-04T04:22:42;101770.44;;;8.17;100.00
67931;BME280;63902;52.000;5.954;2022-10-04T04:23:46;101770.44;;;8.17;100.00
67931;BME280;63902;52.000;5.954;2022-10-04T04:24:50;101772.22;;;8.16;100.00
67931;BME280;63902;52.000;5.954;2022-10-04T04:25:54;101769.59;;;8.15;100.00
67931;BME280;63902;52.000;5.954;2022-10-04T04:26:57;101764.41;;;8.10;100.00
67931;BME280;63902;52.000;5.954;2022-10-04T04:28:10;101763.53;;;8.08;100.00
67931;BME280;63902;52.000;5.954;2022-10-04T04:29:16;101765.28;;;8.09;100.00
67931;BME280;63902;52.000;5.954;2022-10-04T04:30:17;101767.97;;;8.07;100.00
67931;BME280;63902;52.000;5.954;2022-10-04T04:31:19;101757.41;;;8.06;100.00
67931;BME280;63902;52.000;5.954;2022-10-04T04:32:24;101757.44;;;8.04;100.00
67931;BME280;63902;52.000;5.954;2022-10-04T04:33:29;101757.44;;;8.03;100.00
67931;BME280;63902;52.000;5.954;2022-10-04T04:34:32;101751.38;;;7.98;100.00
67931;BME280;63902;52.000;5.954;2022-10-04T04:35:33;101749.63;;;7.97;100.00
67931;BME280;63902;52.000;5.954;2022-10-04T04:36:39;101759.34;;;7.95;100.00
67931;BME280;63902;52.000;5.954;2022-10-04T04:37:40;101755.88;;;7.91;100.00
67931;BME280;63902;52.000;5.954;2022-10-04T04:38:40;101755.88;;;7.91;100.00
67931;BME280;63902;52.000;5.954;2022-10-04T04:39:41;101755.88;;;7.90;100.00
67931;BME280;63902;52.000;5.954;2022-10-04T04:40:41;101759.47;;;7.85;100.00
67931;BME280;63902;52.000;5.954;2022-10-04T04:41:42;101758.56;;;7.87;100.00
67931;BME280;63902;52.000;5.954;2022-10-04T04:42:43;101752.47;;;7.84;100.00
67931;BME280;63902;52.000;5.954;2022-10-04T04:43:45;101758.56;;;7.87;100.00
67931;BME280;63902;52.000;5.954;2022-10-04T04:44:48;101764.75;;;7.85;100.00
67931;BME280;63902;52.000;5.954;2022-10-04T04:45:49;101763.91;;;7.83;100.00
67931;BME280;63902;52.000;5.954;2022-10-04T04:46:50;101753.38;;;7.80;100.00
67931;BME280;63902;52.000;5.954;2022-10-04T04:47:52;101755.16;;;7.80;100.00
67931;BME280;63902;52.000;5.954;2022-10-04T04:48:58;101754.31;;;7.78;100.00
67931;BME280;63902;52.000;5.954;2022-10-04T04:50:04;101749.94;;;7.75;100.00
67931;BME280;63902;52.000;5.954;2022-10-04T04:51:06;101752.56;;;7.75;100.00
67931;BME280;63902;52.000;5.954;2022-10-04T04:52:13;101749.94;;;7.75;100.00
67931;BME280;63902;52.000;5.954;2022-10-04T04:53:19;101749.97;;;7.74;100.00
67931;BME280;63902;52.000;5.954;2022-10-04T04:54:23;101742.97;;;7.71;100.00
67931;BME280;63902;52.000;5.954;2022-10-04T04:55:27;101743.00;;;7.68;100.00
67931;BME280;63902;52.000;5.954;2022-10-04T04:56:29;101743.00;;;7.68;100.00
67931;BME280;63902;52.000;5.954;2022-10-04T04:57:30;101746.53;;;7.69;100.00
67931;BME280;63902;52.000;5.954;2022-10-04T04:58:32;101751.81;;;7.67;100.00
67931;BME280;63902;52.000;5.954;2022-10-04T04:59:35;101749.22;;;7.64;100.00
67931;BME280;63902;52.000;5.954;2022-10-04T05:00:37;101743.97;;;7.62;100.00
67931;BME280;63902;52.000;5.954;2022-10-04T05:01:42;101744.84;;;7.61;100.00
67931;BME280;63902;52.000;5.954;2022-10-04T05:02:50;101741.38;;;7.59;100.00
67931;BME280;63902;52.000;5.954;2022-10-04T05:04:01;101744.06;;;7.56;100.00
67931;BME280;63902;52.000;5.954;2022-10-04T05:05:19;101752.84;;;7.57;100.00
67931;BME280;63902;52.000;5.954;2022-10-04T05:06:24;101748.44;;;7.56;100.00
67931;BME280;63902;52.000;5.954;2022-10-04T05:07:26;101735.34;;;7.51;100.00
67931;BME280;63902;52.000;5.954;2022-10-04T05:08:27;101740.56;;;7.54;100.00
67931;BME280;63902;52.000;5.954;2022-10-04T05:09:30;101739.66;;;7.55;100.00
67931;BME280;63902;52.000;5.954;2022-10-04T05:10:32;101736.16;;;7.53;100.00
67931;BME280;63902;52.000;5.954;2022-10-04T05:11:35;101738.84;;;7.52;100.00
67931;BME280;63902;52.000;5.954;2022-10-04T05:12:36;101737.97;;;7.50;100.00
67931;BME280;63902;52.000;5.954;2022-10-04T05:13:40;101736.25;;;7.49;100.00
67931;BME280;63902;52.000;5.954;2022-10-04T05:14:46;101738.03;;;7.47;100.00
67931;BME280;63902;52.000;5.954;2022-10-04T05:15:52;101734.50;;;7.46;100.00
67931;BME280;63902;52.000;5.954;2022-10-04T05:16:54;101731.00;;;7.46;100.00
67931;BME280;63902;52.000;5.954;2022-10-04T05:17:54;101734.50;;;7.46;100.00
67931;BME280;63902;52.000;5.954;2022-10-04T05:18:56;101728.38;;;7.46;100.00
67931;BME280;63902;52.000;5.954;2022-10-04T05:19:59;101735.44;;;7.44;100.00
67931;BME280;63902;52.000;5.954;2022-10-04T05:21:04;101731.06;;;7.43;100.00
67931;BME280;63902;52.000;5.954;2022-10-04T05:22:08;101732.78;;;7.44;100.00
67931;BME280;63902;52.000;5.954;2022-10-04T05:23:11;101737.19;;;7.42;100.00
67931;BME280;63902;52.000;5.954;2022-10-04T05:24:13;101733.75;;;7.39;100.00
67931;BME280;63902;52.000;5.954;2022-10-04T05:25:25;101729.31;;;7.40;100.00
67931;BME280;63902;52.000;5.954;2022-10-04T05:26:29;101736.38;;;7.38;100.00
67931;BME280;63902;52.000;5.954;2022-10-04T05:27:31;101732.88;;;7.37;100.00
67931;BME280;63902;52.000;5.954;2022-10-04T05:28:34;101732.00;;;7.37;100.00
67931;BME280;63902;52.000;5.954;2022-10-04T05:29:37;101741.66;;;7.36;100.00
67931;BME280;63902;52.000;5.954;2022-10-04T05:30:47;101741.66;;;7.36;100.00
67931;BME280;63902;52.000;5.954;2022-10-04T05:31:54;101742.56;;;7.35;100.00
67931;BME280;63902;52.000;5.954;2022-10-04T05:33:00;101736.44;;;7.33;100.00
67931;BME280;63902;52.000;5.954;2022-10-04T05:34:13;101743.47;;;7.34;100.00
67931;BME280;63902;52.000;5.954;2022-10-04T05:35:18;101751.41;;;7.34;100.00
67931;BME280;63902;52.000;5.954;2022-10-04T05:36:39;101749.63;;;7.33;100.00
67931;BME280;63902;52.000;5.954;2022-10-04T05:37:58;101752.31;;;7.32;100.00
67931;BME280;63902;52.000;5.954;2022-10-04T05:39:06;101738.28;;;7.27;100.00
67931;BME280;63902;52.000;5.954;2022-10-04T05:40:22;101748.78;;;7.31;100.00
67931;BME280;63902;52.000;5.954;2022-10-04T05:41:30;101748.78;;;7.31;100.00
67931;BME280;63902;52.000;5.954;2022-10-04T05:42:36;101758.44;;;7.32;100.00
67931;BME280;63902;52.000;5.954;2022-10-04T05:43:44;101758.44;;;7.31;99.97
67931;BME280;63902;52.000;5.954;2022-10-04T05:44:48;101758.50;;;7.29;100.00
67931;BME280;63902;52.000;5.954;2022-10-04T05:47:19;101747.06;;;7.27;100.00